Terre Haute, IN (47801)

1:18 PM EDT on September 29, 2016 (GMT -0400)
Ohio Boulevard | | Change Station

Elev 502 ft 39.47 °N, 87.39 °W | Updated 1 minute ago

Overcast
Overcast
66.6 °F
Feels Like 66.6 °F
N
2.0
Wind Variable Wind from West

Today
High -- | Low -- °F
--% Chance of Precip.
Yesterday
High -- | Low -- °F
Precip. -- in
Pressure 30.10 in
Visibility 10.0 miles
Clouds Few 2400 ft
Mostly Cloudy 4500 ft
Overcast 5500 ft
Dew Point 56 °F
Humidity 70%
Rainfall 0.09 in
Snow Depth Not available.
7:44 AM 7:34 PM
Waning Crescent, 2% visible
METAR KHUF 291653Z 02005KT 10SM FEW024 BKN045 OVC055 17/12 A3010 RMK AO2 SLP192 T01720117
Pressure 30.10 in
Visibility 10.0 miles
Clouds Few 2400 ft
Mostly Cloudy 4500 ft
Overcast 5500 ft
Dew Point 56 °F
Humidity 70%
Rainfall 0.09 in
Snow Depth Not available.
7:44 AM 7:34 PM
Waning Crescent, 2% visible
METAR KHUF 291653Z 02005KT 10SM FEW024 BKN045 OVC055 17/12 A3010 RMK AO2 SLP192 T01720117

10-Day Weather Forecast

Almanac

Astronomy

Sep. 29, 2016 Rise Set
Actual Time
Civil Twilight
Nautical Twilight
Astronomical Twilight
Moon
Length of Visible Light
Length of Day
Tomorrow will be .
, % of the Moon is Illuminated

Today's Extremes

State Highs State Lows

Community

WunderPhotos

Upload Photos

1,942,522 photos uploaded!

WunderBlog® & News

Nearby

Air Quality

  Air Quality AQ Index Pollutant
Not available.

Snow Depth

Station Depth Elevation

Earthquake Activity

City Distance Mag. Time & Date
Minimum magnitude displayed is 2.5.

Coastal Water Temperatures

Place Temperature

Stations

Nearby Weather Stations

Station Location Temp. Windchill Dew Point Humidity Wind Precip. Elev Updated Type
                   

Watches & Warnings

There are currently no watches in effect.